Time;durP1;ratioP1;P1;durP2;ratioP2;P2;SDS_P1;SDS_P2;PMS_P1;PMS_P2;Temp;Humidity;BMP_temperature;BMP_pressure;BME280_temperature;BME280_humidity;BME280_pressure;Samples;Min_cycle;Max_cycle;Signal;HPM_P1;HPM_P2
2022/06/06 00:02:22;;;;;;;;;;;;;;;;;;5049446;28;19909;-57
2022/06/06 00:04:48;;;;;;;;;;;;;;;;;;5049560;28;19912;-57
2022/06/06 00:07:14;;;;;;;;;;;;;;;;;;5050114;28;19935;-57
2022/06/06 00:09:40;;;;;;;;;;;;;;;;;;5050062;28;20315;-57
2022/06/06 00:12:06;;;;;;;;;;;;;;;;;;5049824;28;19913;-57
2022/06/06 00:14:32;;;;;;;;;;;;;;;;;;5057378;28;19904;-57
2022/06/06 00:16:58;;;;;;;;;;;;;;;;;;5049560;28;19919;-57
2022/06/06 00:19:24;;;;;;;;;;;;;;;;;;5048769;28;19916;-57
2022/06/06 00:21:50;;;;;;;;;;;;;;;;;;5049174;28;19908;-57
2022/06/06 00:24:16;;;;;;;;;;;;;;;;;;5055992;28;19904;-57
2022/06/06 00:26:42;;;;;;;;;;;;;;;;;;5069603;28;19908;-57
2022/06/06 00:29:08;;;;;;;;;;;;;;;;;;5069396;28;19904;-57
2022/06/06 00:37:03;;;;;;;;;;;;;;;;;;5049331;28;19939;-57
2022/06/06 00:39:29;;;;;;;;;;;;;;;;;;5048961;28;19912;-57
2022/06/06 00:41:55;;;;;;;;;;;;;;;;;;5049322;28;19909;-57
2022/06/06 00:44:21;;;;;;;;;;;;;;;;;;5053005;28;19908;-57
2022/06/06 00:46:47;;;;;;;;;;;;;;;;;;5068419;28;19911;-57
2022/06/06 00:49:13;;;;;;;;;;;;;;;;;;5069884;28;19905;-57
2022/06/06 00:51:39;;;;;;;;;;;;;;;;;;5069500;28;20021;-57
2022/06/06 00:54:06;;;;;;;;;;;;;;;;;;5068311;28;19904;-57
2022/06/06 00:56:32;;;;;;;;;;;;;;;;;;5049794;28;19919;-57
2022/06/06 00:58:58;;;;;;;;;;;;;;;;;;5048870;28;19904;-57
2022/06/06 01:01:24;;;;;;;;;;;;;;;;;;5048212;28;19981;-57
2022/06/06 01:03:50;;;;;;;;;;;;;;;;;;5047085;28;19908;-57
2022/06/06 01:06:16;;;;;;;;;;;;;;;;;;5063777;28;19908;-57
2022/06/06 01:08:42;;;;;;;;;;;;;;;;;;5068970;28;20256;-57
2022/06/06 01:11:08;;;;;;;;;;;;;;;;;;5068394;28;19911;-57
2022/06/06 01:13:34;;;;;;;;;;;;;;;;;;5067518;28;19904;-57
2022/06/06 01:16:00;;;;;;;;;;;;;;;;;;5066240;28;19970;-57
2022/06/06 01:18:26;;;;;;;;;;;;;;;;;;5068088;28;19909;-57
2022/06/06 01:20:53;;;;;;;;;;;;;;;;;;5068240;28;19931;-57
2022/06/06 01:23:19;;;;;;;;;;;;;;;;;;5068368;28;20003;-57
2022/06/06 01:25:45;;;;;;;;;;;;;;;;;;5068448;28;20016;-57
2022/06/06 01:28:11;;;;;;;;;;;;;;;;;;5068230;28;19908;-57
2022/06/06 01:30:37;;;;;;;;;;;;;;;;;;5066552;28;19915;-57
2022/06/06 01:33:03;;;;;;;;;;;;;;;;;;5068139;28;19905;-57
2022/06/06 01:35:29;;;;;;;;;;;;;;;;;;5067520;28;19908;-57
2022/06/06 01:37:54;;;;;;;;;;;;;;;;;;5065007;28;20421;-57
2022/06/06 01:40:20;;;;;;;;;;;;;;;;;;5052649;28;19908;-57
2022/06/06 01:42:46;;;;;;;;;;;;;;;;;;5066090;28;19999;-57
2022/06/06 01:45:12;;;;;;;;;;;;;;;;;;5067829;28;19905;-57
2022/06/06 01:47:38;;;;;;;;;;;;;;;;;;5068094;28;20057;-57
2022/06/06 01:50:04;;;;;;;;;;;;;;;;;;5067962;28;19912;-57
2022/06/06 01:52:30;;;;;;;;;;;;;;;;;;5067855;28;19909;-57
2022/06/06 01:54:56;;;;;;;;;;;;;;;;;;5066095;28;19936;-57
2022/06/06 01:57:22;;;;;;;;;;;;;;;;;;5066914;28;19908;-57
2022/06/06 01:59:48;;;;;;;;;;;;;;;;;;5067099;28;20367;-57
2022/06/06 02:02:15;;;;;;;;;;;;;;;;;;5066324;28;19999;-57
2022/06/06 02:04:42;;;;;;;;;;;;;;;;;;5067327;28;19947;-57
2022/06/06 02:07:08;;;;;;;;;;;;;;;;;;5067651;28;19904;-57
2022/06/06 02:09:34;;;;;;;;;;;;;;;;;;5067011;28;19912;-57
2022/06/06 02:12:00;;;;;;;;;;;;;;;;;;5067026;28;19915;-57
2022/06/06 02:14:26;;;;;;;;;;;;;;;;;;5051839;28;20003;-57
2022/06/06 02:16:52;;;;;;;;;;;;;;;;;;5047407;28;19947;-57
2022/06/06 02:19:18;;;;;;;;;;;;;;;;;;5047517;28;19908;-57
2022/06/06 02:21:44;;;;;;;;;;;;;;;;;;5047483;28;20425;-57
2022/06/06 02:24:10;;;;;;;;;;;;;;;;;;5048689;28;19935;-57
2022/06/06 02:26:36;;;;;;;;;;;;;;;;;;5063428;28;19908;-57
2022/06/06 02:29:02;;;;;;;;;;;;;;;;;;5066545;28;19904;-57
2022/06/06 02:31:28;;;;;;;;;;;;;;;;;;5065458;28;19927;-56
2022/06/06 02:33:54;;;;;;;;;;;;;;;;;;5067145;28;20338;-57
2022/06/06 02:36:20;;;;;;;;;;;;;;;;;;5067166;28;19908;-57
2022/06/06 02:38:46;;;;;;;;;;;;;;;;;;5066941;28;19913;-57
2022/06/06 02:41:13;;;;;;;;;;;;;;;;;;5051654;28;19913;-57
2022/06/06 02:43:39;;;;;;;;;;;;;;;;;;5046662;28;19957;-57
2022/06/06 02:46:05;;;;;;;;;;;;;;;;;;5046713;28;19912;-57
2022/06/06 02:48:31;;;;;;;;;;;;;;;;;;5046743;28;19904;-57
2022/06/06 02:50:57;;;;;;;;;;;;;;;;;;5058468;28;19919;-57
2022/06/06 02:53:23;;;;;;;;;;;;;;;;;;5066982;28;19911;-57
2022/06/06 02:55:49;;;;;;;;;;;;;;;;;;5066497;28;19916;-57
2022/06/06 02:58:15;;;;;;;;;;;;;;;;;;5065723;28;19919;-57
2022/06/06 03:00:43;;;;;;;;;;;;;;;;;;5055643;28;19915;-57
2022/06/06 03:03:08;;;;;;;;;;;;;;;;;;5046567;28;20624;-57
2022/06/06 03:05:34;;;;;;;;;;;;;;;;;;5046566;28;19913;-57
2022/06/06 03:08:00;;;;;;;;;;;;;;;;;;5046965;28;19956;-57
2022/06/06 03:10:27;;;;;;;;;;;;;;;;;;5053871;28;19961;-57
2022/06/06 03:12:53;;;;;;;;;;;;;;;;;;5066500;28;20337;-57
2022/06/06 03:15:18;;;;;;;;;;;;;;;;;;5065707;28;19905;-58
2022/06/06 03:20:47;;;;;;;;;;;;;;;;;;5058171;28;20417;-57
2022/06/06 03:23:13;;;;;;;;;;;;;;;;;;5046487;28;20365;-57
2022/06/06 03:25:39;;;;;;;;;;;;;;;;;;5059499;28;20010;-57
2022/06/06 03:28:05;;;;;;;;;;;;;;;;;;5069806;28;19935;-57
2022/06/06 03:30:31;;;;;;;;;;;;;;;;;;5068449;28;19915;-57
2022/06/06 03:32:57;;;;;;;;;;;;;;;;;;5070053;28;19904;-57
2022/06/06 03:35:23;;;;;;;;;;;;;;;;;;5069486;28;20322;-57
2022/06/06 03:37:49;;;;;;;;;;;;;;;;;;5069406;28;19926;-57
2022/06/06 03:40:15;;;;;;;;;;;;;;;;;;5068547;28;19938;-57
2022/06/06 03:42:44;;;;;;;;;;;;;;;;;;5069497;28;19909;-57
2022/06/06 03:45:10;;;;;;;;;;;;;;;;;;5061616;28;19918;-57
2022/06/06 03:47:36;;;;;;;;;;;;;;;;;;5048488;28;19912;-57
2022/06/06 03:50:02;;;;;;;;;;;;;;;;;;5048464;28;19911;-57
2022/06/06 03:52:28;;;;;;;;;;;;;;;;;;5054124;28;20038;-57
2022/06/06 03:54:54;;;;;;;;;;;;;;;;;;5068402;28;20295;-57
2022/06/06 03:57:20;;;;;;;;;;;;;;;;;;5068439;28;19916;-57
2022/06/06 03:59:47;;;;;;;;;;;;;;;;;;5068064;28;20313;-57
2022/06/06 04:02:13;;;;;;;;;;;;;;;;;;5053286;28;19948;-57
2022/06/06 04:04:39;;;;;;;;;;;;;;;;;;5063990;28;19912;-57
2022/06/06 04:07:05;;;;;;;;;;;;;;;;;;5068247;28;19916;-57
2022/06/06 04:09:31;;;;;;;;;;;;;;;;;;5067604;28;19908;-57
2022/06/06 04:11:57;;;;;;;;;;;;;;;;;;5066671;28;19904;-57
2022/06/06 04:14:23;;;;;;;;;;;;;;;;;;5067324;28;19904;-57
2022/06/06 04:16:49;;;;;;;;;;;;;;;;;;5048586;28;19931;-57
2022/06/06 04:19:15;;;;;;;;;;;;;;;;;;5048034;28;20376;-57
2022/06/06 04:21:40;;;;;;;;;;;;;;;;;;5048102;28;19920;-57
2022/06/06 04:24:06;;;;;;;;;;;;;;;;;;5048168;28;19915;-57
2022/06/06 04:26:34;;;;;;;;;;;;;;;;;;5052057;28;19939;-57
2022/06/06 04:29:00;;;;;;;;;;;;;;;;;;5067946;28;19997;-57
2022/06/06 04:31:26;;;;;;;;;;;;;;;;;;5067063;28;19908;-57
2022/06/06 04:33:53;;;;;;;;;;;;;;;;;;5066171;28;20299;-57
2022/06/06 04:36:18;;;;;;;;;;;;;;;;;;5047021;28;19999;-57
2022/06/06 04:38:44;;;;;;;;;;;;;;;;;;5047493;28;20031;-57
2022/06/06 04:41:11;;;;;;;;;;;;;;;;;;5061374;28;19916;-57
2022/06/06 04:43:38;;;;;;;;;;;;;;;;;;5067891;28;19995;-57
2022/06/06 04:46:04;;;;;;;;;;;;;;;;;;5050717;28;19999;-57
2022/06/06 04:48:31;;;;;;;;;;;;;;;;;;5047214;28;19995;-57
2022/06/06 04:50:57;;;;;;;;;;;;;;;;;;5047170;28;19905;-57
2022/06/06 04:53:23;;;;;;;;;;;;;;;;;;5047309;28;19905;-57
2022/06/06 04:55:49;;;;;;;;;;;;;;;;;;5062470;28;19938;-57
2022/06/06 04:58:15;;;;;;;;;;;;;;;;;;5067556;28;19908;-57
2022/06/06 05:00:42;;;;;;;;;;;;;;;;;;5066357;28;19970;-57
2022/06/06 05:03:09;;;;;;;;;;;;;;;;;;5059977;28;20296;-57
2022/06/06 05:05:34;;;;;;;;;;;;;;;;;;5059030;28;19920;-57
2022/06/06 05:08:01;;;;;;;;;;;;;;;;;;5066996;28;19931;-57
2022/06/06 05:10:27;;;;;;;;;;;;;;;;;;5065944;28;19969;-57
2022/06/06 05:12:54;;;;;;;;;;;;;;;;;;5067166;28;19908;-57
2022/06/06 05:15:20;;;;;;;;;;;;;;;;;;5065776;28;20007;-57
2022/06/06 05:17:46;;;;;;;;;;;;;;;;;;5054024;28;20492;-57
2022/06/06 05:20:12;;;;;;;;;;;;;;;;;;5046680;28;20368;-57
2022/06/06 05:22:39;;;;;;;;;;;;;;;;;;5046293;28;19915;-57
2022/06/06 05:25:05;;;;;;;;;;;;;;;;;;5054827;28;19912;-57
2022/06/06 05:27:31;;;;;;;;;;;;;;;;;;5066206;28;19908;-57
2022/06/06 05:29:57;;;;;;;;;;;;;;;;;;5066221;28;19947;-57
2022/06/06 05:32:23;;;;;;;;;;;;;;;;;;5066696;28;19939;-57
2022/06/06 05:34:49;;;;;;;;;;;;;;;;;;5066851;28;19961;-57
2022/06/06 05:37:16;;;;;;;;;;;;;;;;;;5066683;28;19905;-57
2022/06/06 05:39:42;;;;;;;;;;;;;;;;;;5059906;28;19919;-57
2022/06/06 05:42:08;;;;;;;;;;;;;;;;;;5046348;28;19909;-57
2022/06/06 05:44:34;;;;;;;;;;;;;;;;;;5045938;28;19962;-57
2022/06/06 05:47:00;;;;;;;;;;;;;;;;;;5055500;28;20015;-57
2022/06/06 05:49:27;;;;;;;;;;;;;;;;;;5064531;28;20327;-57
2022/06/06 05:51:53;;;;;;;;;;;;;;;;;;5046076;28;19904;-57
2022/06/06 05:54:19;;;;;;;;;;;;;;;;;;5046898;28;19904;-57
2022/06/06 05:56:45;;;;;;;;;;;;;;;;;;5045998;28;19920;-57
2022/06/06 05:59:11;;;;;;;;;;;;;;;;;;5050386;28;19916;-57
2022/06/06 06:01:37;;;;;;;;;;;;;;;;;;5057018;28;19916;-57
2022/06/06 06:04:03;;;;;;;;;;;;;;;;;;5081754;28;19915;-57
2022/06/06 06:06:29;;;;;;;;;;;;;;;;;;5065276;28;20003;-57
2022/06/06 06:08:55;;;;;;;;;;;;;;;;;;5065782;28;19999;-56
2022/06/06 06:11:21;;;;;;;;;;;;;;;;;;5061187;28;19912;-56
2022/06/06 06:13:47;;;;;;;;;;;;;;;;;;5067322;28;20376;-57
2022/06/06 06:16:15;;;;;;;;;;;;;;;;;;5067456;28;19987;-57
2022/06/06 06:18:40;;;;;;;;;;;;;;;;;;5054101;28;19913;-57
2022/06/06 06:21:06;;;;;;;;;;;;;;;;;;5053508;28;20429;-57
2022/06/06 06:23:33;;;;;;;;;;;;;;;;;;5048486;28;20015;-57
2022/06/06 06:25:59;;;;;;;;;;;;;;;;;;5047419;28;19905;-57
2022/06/06 06:28:25;;;;;;;;;;;;;;;;;;5046810;28;19913;-57
2022/06/06 06:30:51;;;;;;;;;;;;;;;;;;5047206;28;20570;-57
2022/06/06 06:33:16;;;;;;;;;;;;;;;;;;5065428;28;19935;-56
2022/06/06 06:35:42;;;;;;;;;;;;;;;;;;5077669;28;19909;-57
2022/06/06 06:38:08;;;;;;;;;;;;;;;;;;5053589;28;19909;-57
2022/06/06 06:40:34;;;;;;;;;;;;;;;;;;5046866;28;19908;-56
2022/06/06 06:43:01;;;;;;;;;;;;;;;;;;5046475;28;19920;-57
2022/06/06 06:45:27;;;;;;;;;;;;;;;;;;5048461;28;20046;-58
2022/06/06 06:47:53;;;;;;;;;;;;;;;;;;5065663;28;20007;-57
2022/06/06 06:50:19;;;;;;;;;;;;;;;;;;5066753;28;19988;-57
2022/06/06 06:52:44;;;;;;;;;;;;;;;;;;5065936;28;20899;-57
2022/06/06 06:55:10;;;;;;;;;;;;;;;;;;5057539;28;19911;-57
2022/06/06 06:57:36;;;;;;;;;;;;;;;;;;5069518;28;19926;-57
2022/06/06 07:00:02;;;;;;;;;;;;;;;;;;5066597;28;19909;-57
2022/06/06 07:10:50;;;;;;;;;;;;;;;;;;5065934;28;20006;-57
2022/06/06 07:13:16;;;;;;;;;;;;;;;;;;5064932;28;19951;-57
2022/06/06 07:15:42;;;;;;;;;;;;;;;;;;5065818;28;20003;-57
2022/06/06 07:18:08;;;;;;;;;;;;;;;;;;5068405;28;19915;-57
2022/06/06 07:20:35;;;;;;;;;;;;;;;;;;5077181;28;19908;-57
2022/06/06 07:23:04;;;;;;;;;;;;;;;;;;5052178;28;20625;-57
2022/06/06 07:25:30;;;;;;;;;;;;;;;;;;5054820;28;20565;-57
2022/06/06 07:27:56;;;;;;;;;;;;;;;;;;5065933;28;19904;-57
2022/06/06 07:30:22;;;;;;;;;;;;;;;;;;5066379;28;20416;-57
2022/06/06 07:32:48;;;;;;;;;;;;;;;;;;5070783;28;19959;-57
2022/06/06 07:35:14;;;;;;;;;;;;;;;;;;5066460;28;19912;-57
2022/06/06 07:37:41;;;;;;;;;;;;;;;;;;5067202;28;19908;-57
2022/06/06 07:40:06;;;;;;;;;;;;;;;;;;5065458;28;19912;-57
2022/06/06 07:42:32;;;;;;;;;;;;;;;;;;5065495;28;19927;-57
2022/06/06 07:44:58;;;;;;;;;;;;;;;;;;5068011;28;19909;-57
2022/06/06 07:47:24;;;;;;;;;;;;;;;;;;5065903;28;19931;-57
2022/06/06 07:49:50;;;;;;;;;;;;;;;;;;5066144;28;19909;-57
2022/06/06 07:52:16;;;;;;;;;;;;;;;;;;5065362;28;19908;-57
2022/06/06 07:54:42;;;;;;;;;;;;;;;;;;5065721;28;19912;-58
2022/06/06 07:57:08;;;;;;;;;;;;;;;;;;5066376;28;19939;-57
2022/06/06 07:59:34;;;;;;;;;;;;;;;;;;5065879;28;19916;-57
2022/06/06 08:02:03;;;;;;;;;;;;;;;;;;5065670;28;19913;-57
2022/06/06 08:04:29;;;;;;;;;;;;;;;;;;5065190;28;19908;-57
2022/06/06 08:06:54;;;;;;;;;;;;;;;;;;5058211;28;19919;-57
2022/06/06 08:09:20;;;;;;;;;;;;;;;;;;5069793;28;19904;-57
2022/06/06 08:11:46;;;;;;;;;;;;;;;;;;5057453;28;19908;-57
2022/06/06 08:14:14;;;;;;;;;;;;;;;;;;5057341;28;19913;-57
2022/06/06 08:16:41;;;;;;;;;;;;;;;;;;5067776;28;19908;-57
2022/06/06 08:19:07;;;;;;;;;;;;;;;;;;5078436;28;19934;-58
2022/06/06 08:21:33;;;;;;;;;;;;;;;;;;5061812;28;19920;-57
2022/06/06 08:23:59;;;;;;;;;;;;;;;;;;5066511;28;19974;-57
2022/06/06 08:26:25;;;;;;;;;;;;;;;;;;5082999;28;19916;-57
2022/06/06 08:28:50;;;;;;;;;;;;;;;;;;5059153;28;19996;-57
2022/06/06 08:31:16;;;;;;;;;;;;;;;;;;5069869;28;19904;-57
2022/06/06 08:33:42;;;;;;;;;;;;;;;;;;5067748;28;19908;-57
2022/06/06 08:36:09;;;;;;;;;;;;;;;;;;5081383;28;19934;-58
2022/06/06 08:38:35;;;;;;;;;;;;;;;;;;5062136;28;19909;-57
2022/06/06 08:41:01;;;;;;;;;;;;;;;;;;5066515;28;20380;-57
2022/06/06 08:43:27;;;;;;;;;;;;;;;;;;5048910;28;19931;-57
2022/06/06 08:45:53;;;;;;;;;;;;;;;;;;5058041;28;19995;-57
2022/06/06 08:48:19;;;;;;;;;;;;;;;;;;5070857;28;19908;-57
2022/06/06 08:50:45;;;;;;;;;;;;;;;;;;5069454;28;19999;-57
2022/06/06 08:53:11;;;;;;;;;;;;;;;;;;5075579;28;19909;-57
2022/06/06 08:55:37;;;;;;;;;;;;;;;;;;5089504;28;19912;-58
2022/06/06 08:58:03;;;;;;;;;;;;;;;;;;5073186;28;19927;-57
2022/06/06 09:00:29;;;;;;;;;;;;;;;;;;5081458;28;19923;-57
2022/06/06 09:02:55;;;;;;;;;;;;;;;;;;5086494;28;20027;-57
2022/06/06 09:05:21;;;;;;;;;;;;;;;;;;5066840;28;19915;-57
2022/06/06 09:07:49;;;;;;;;;;;;;;;;;;5081537;28;19912;-57
2022/06/06 09:10:15;;;;;;;;;;;;;;;;;;5069004;28;20601;-57
2022/06/06 09:12:41;;;;;;;;;;;;;;;;;;5069111;28;19939;-57
2022/06/06 09:15:07;;;;;;;;;;;;;;;;;;5068934;28;19938;-57
2022/06/06 09:17:33;;;;;;;;;;;;;;;;;;5067475;28;19947;-57
2022/06/06 09:19:59;;;;;;;;;;;;;;;;;;5069773;28;20390;-57
2022/06/06 09:22:25;;;;;;;;;;;;;;;;;;5071609;28;19943;-57
2022/06/06 09:24:51;;;;;;;;;;;;;;;;;;5067743;28;19908;-57
2022/06/06 09:27:18;;;;;;;;;;;;;;;;;;5068981;28;19911;-57
2022/06/06 09:29:44;;;;;;;;;;;;;;;;;;5068258;28;19961;-57
2022/06/06 09:32:10;;;;;;;;;;;;;;;;;;5069750;28;19904;-57
2022/06/06 09:34:36;;;;;;;;;;;;;;;;;;5073631;28;19913;-57
2022/06/06 09:37:04;;;;;;;;;;;;;;;;;;5069306;28;19998;-57
2022/06/06 09:39:30;;;;;;;;;;;;;;;;;;5069030;28;20398;-57
2022/06/06 09:41:56;;;;;;;;;;;;;;;;;;5056465;28;19916;-57
2022/06/06 09:44:22;;;;;;;;;;;;;;;;;;5084474;28;19947;-57
2022/06/06 09:46:48;;;;;;;;;;;;;;;;;;5071008;28;19943;-58
2022/06/06 09:49:14;;;;;;;;;;;;;;;;;;5068510;28;19962;-57
2022/06/06 09:51:40;;;;;;;;;;;;;;;;;;5072072;28;19914;-57
2022/06/06 09:59:35;;;;;;;;;;;;;;;;;;5088144;28;19954;-57
2022/06/06 10:02:01;;;;;;;;;;;;;;;;;;5088985;28;20394;-57
2022/06/06 10:04:27;;;;;;;;;;;;;;;;;;5074607;28;19908;-57
2022/06/06 10:06:53;;;;;;;;;;;;;;;;;;5069875;28;20568;-57
2022/06/06 10:09:19;;;;;;;;;;;;;;;;;;5077287;28;19912;-57
2022/06/06 10:11:45;;;;;;;;;;;;;;;;;;5074236;28;19912;-57
2022/06/06 10:14:11;;;;;;;;;;;;;;;;;;5066953;28;19916;-57
2022/06/06 10:16:37;;;;;;;;;;;;;;;;;;5064183;28;19908;-58
2022/06/06 10:19:03;;;;;;;;;;;;;;;;;;5068415;28;19908;-58
2022/06/06 10:21:29;;;;;;;;;;;;;;;;;;5067236;28;19932;-58
2022/06/06 10:23:55;;;;;;;;;;;;;;;;;;5071436;28;20760;-57
2022/06/06 10:26:21;;;;;;;;;;;;;;;;;;5078491;28;19969;-57
2022/06/06 10:28:47;;;;;;;;;;;;;;;;;;5072824;28;19945;-57
2022/06/06 10:31:13;;;;;;;;;;;;;;;;;;5075643;28;19927;-57
2022/06/06 10:33:38;;;;;;;;;;;;;;;;;;5066964;28;19912;-57
2022/06/06 10:36:04;;;;;;;;;;;;;;;;;;5066434;28;19920;-57
2022/06/06 10:38:30;;;;;;;;;;;;;;;;;;5053359;28;19912;-57
2022/06/06 10:40:57;;;;;;;;;;;;;;;;;;5049569;28;19913;-57
2022/06/06 10:43:23;;;;;;;;;;;;;;;;;;5058810;28;19999;-57
2022/06/06 10:45:49;;;;;;;;;;;;;;;;;;5086682;28;20023;-57
2022/06/06 10:48:15;;;;;;;;;;;;;;;;;;5067820;28;19912;-57
2022/06/06 10:51:36;;;;;;;;;;;;;;;;;;5067000;28;19915;-57
2022/06/06 10:53:26;;;;;;;;;;;;;;;;;;5062879;28;19912;-58
2022/06/06 10:55:52;;;;;;;;;;;;;;;;;;5067259;28;19916;-57
2022/06/06 10:58:18;;;;;;;;;;;;;;;;;;5065834;28;19954;-57
2022/06/06 11:00:46;;;;;;;;;;;;;;;;;;5078232;28;19916;-59
2022/06/06 11:03:12;;;;;;;;;;;;;;;;;;5067137;28;20337;-58
2022/06/06 11:05:38;;;;;;;;;;;;;;;;;;5065377;28;19916;-58
2022/06/06 11:08:04;;;;;;;;;;;;;;;;;;5067795;28;19908;-58
2022/06/06 11:10:30;;;;;;;;;;;;;;;;;;5064172;28;19911;-57
2022/06/06 11:12:55;;;;;;;;;;;;;;;;;;5066581;28;19908;-57
2022/06/06 11:15:21;;;;;;;;;;;;;;;;;;5068397;28;19933;-58
2022/06/06 11:17:47;;;;;;;;;;;;;;;;;;5063300;28;19930;-58
2022/06/06 11:20:13;;;;;;;;;;;;;;;;;;5057299;28;19944;-57
2022/06/06 11:22:39;;;;;;;;;;;;;;;;;;5063415;28;19917;-57
2022/06/06 11:25:05;;;;;;;;;;;;;;;;;;5063632;28;20066;-57
2022/06/06 11:27:31;;;;;;;;;;;;;;;;;;5080515;28;19908;-58
2022/06/06 11:29:57;;;;;;;;;;;;;;;;;;5064899;28;19908;-57
2022/06/06 11:32:24;;;;;;;;;;;;;;;;;;5075037;28;19965;-57
2022/06/06 11:34:50;;;;;;;;;;;;;;;;;;5082507;28;19922;-57
2022/06/06 11:37:16;;;;;;;;;;;;;;;;;;5073871;28;19904;-57
2022/06/06 11:39:42;;;;;;;;;;;;;;;;;;5071350;28;19914;-57
2022/06/06 11:42:08;;;;;;;;;;;;;;;;;;5065938;28;20022;-57
2022/06/06 11:44:33;;;;;;;;;;;;;;;;;;5076519;28;19915;-57
2022/06/06 11:47:00;;;;;;;;;;;;;;;;;;5071660;28;19915;-57
2022/06/06 11:49:26;;;;;;;;;;;;;;;;;;5072765;28;20391;-58
2022/06/06 11:51:52;;;;;;;;;;;;;;;;;;5070262;28;19940;-59
2022/06/06 11:54:18;;;;;;;;;;;;;;;;;;5078912;28;19939;-58
2022/06/06 11:56:44;;;;;;;;;;;;;;;;;;5088124;28;20019;-58
2022/06/06 11:59:10;;;;;;;;;;;;;;;;;;5067364;28;19919;-58
2022/06/06 12:01:36;;;;;;;;;;;;;;;;;;5066923;28;19908;-59
2022/06/06 12:04:02;;;;;;;;;;;;;;;;;;5070134;28;19905;-58
2022/06/06 12:06:28;;;;;;;;;;;;;;;;;;5057714;28;19909;-59
2022/06/06 12:08:54;;;;;;;;;;;;;;;;;;5065793;28;19913;-57
2022/06/06 12:11:20;;;;;;;;;;;;;;;;;;5069101;28;20448;-57
2022/06/06 12:13:46;;;;;;;;;;;;;;;;;;5064828;28;19909;-57
2022/06/06 12:16:12;;;;;;;;;;;;;;;;;;5067218;28;19905;-57
2022/06/06 12:18:38;;;;;;;;;;;;;;;;;;5069482;28;19961;-57
2022/06/06 12:21:04;;;;;;;;;;;;;;;;;;5070359;28;19912;-57
2022/06/06 12:23:30;;;;;;;;;;;;;;;;;;5062871;28;19916;-57
2022/06/06 12:25:56;;;;;;;;;;;;;;;;;;5070520;28;19912;-57
2022/06/06 12:28:22;;;;;;;;;;;;;;;;;;5063952;28;19934;-57
2022/06/06 12:30:48;;;;;;;;;;;;;;;;;;5080439;28;19908;-57
2022/06/06 12:33:14;;;;;;;;;;;;;;;;;;5072826;28;20507;-58
2022/06/06 12:35:40;;;;;;;;;;;;;;;;;;5062051;28;19912;-47
2022/06/06 12:38:06;;;;;;;;;;;;;;;;;;5062618;28;19912;-46
2022/06/06 12:40:32;;;;;;;;;;;;;;;;;;5054797;28;19954;-46
2022/06/06 12:42:58;;;;;;;;;;;;;;;;;;5055223;28;19963;-46
2022/06/06 12:45:24;;;;;;;;;;;;;;;;;;5067579;28;19913;-47
2022/06/06 12:47:49;;;;;;;;;;;;;;;;;;5069100;28;20049;-46
2022/06/06 12:50:19;;;;;;;;;;;;;;;;;;5069268;28;20006;-48
2022/06/06 12:52:45;;;;;;;;;;;;;;;;;;5068713;28;19908;-48
2022/06/06 12:55:31;;;;;;;;;;;;;;;;;;5067489;28;19920;-46
2022/06/06 12:57:58;;;;;;;;;;;;;;;;;;5081311;28;19962;-48
2022/06/06 13:01:37;;;;;;;;;;;;;;;;;;5084335;28;19920;-48
2022/06/06 13:03:10;;;;;;;;;;;;;;;;;;5067647;28;19916;-46
2022/06/06 13:05:37;;;;;;;;;;;;;;;;;;5069313;28;19904;-47
2022/06/06 13:08:03;;;;;;;;;;;;;;;;;;5069272;28;19908;-47
2022/06/06 13:10:29;;;;;;;;;;;;;;;;;;5068400;28;19977;-46
2022/06/06 13:12:55;;;;;;;;;;;;;;;;;;5067264;28;20359;-47
2022/06/06 13:15:21;;;;;;;;;;;;;;;;;;5074400;28;19912;-47
2022/06/06 13:17:49;;;;;;;;;;;;;;;;;;5076298;28;19908;-45
2022/06/06 13:20:15;;;;;;;;;;;;;;;;;;5067742;28;19919;-45
2022/06/06 13:22:41;;;;;;;;;;;;;;;;;;5074331;28;19915;-45
2022/06/06 13:25:07;;;;;;;;;;;;;;;;;;5057533;28;19908;-48
2022/06/06 13:27:33;;;;;;;;;;;;;;;;;;5062054;28;19908;-48
2022/06/06 13:29:59;;;;;;;;;;;;;;;;;;5057813;28;19958;-48
2022/06/06 13:32:26;;;;;;;;;;;;;;;;;;5065361;28;19943;-44
2022/06/06 13:34:52;;;;;;;;;;;;;;;;;;5063577;28;19917;-45
2022/06/06 13:37:18;;;;;;;;;;;;;;;;;;5066517;28;19905;-44
2022/06/06 13:39:44;;;;;;;;;;;;;;;;;;5079405;28;20280;-46
2022/06/06 13:42:10;;;;;;;;;;;;;;;;;;5067984;28;19908;-47
2022/06/06 13:44:36;;;;;;;;;;;;;;;;;;5067897;28;19913;-46
2022/06/06 13:47:02;;;;;;;;;;;;;;;;;;5070078;28;19982;-46
2022/06/06 13:49:28;;;;;;;;;;;;;;;;;;5057824;28;19958;-47
2022/06/06 13:51:55;;;;;;;;;;;;;;;;;;5062369;28;19916;-47
2022/06/06 13:54:21;;;;;;;;;;;;;;;;;;5067491;28;20330;-45
2022/06/06 13:56:47;;;;;;;;;;;;;;;;;;5067785;28;19965;-46
2022/06/06 13:59:13;;;;;;;;;;;;;;;;;;5067213;28;19904;-45
2022/06/06 14:01:39;;;;;;;;;;;;;;;;;;5067485;28;20345;-48
2022/06/06 14:04:06;;;;;;;;;;;;;;;;;;5068124;28;19928;-48
2022/06/06 14:06:33;;;;;;;;;;;;;;;;;;5071783;28;19912;-44
2022/06/06 14:08:59;;;;;;;;;;;;;;;;;;5064740;28;19916;-47
2022/06/06 14:11:25;;;;;;;;;;;;;;;;;;5059837;28;19912;-45
2022/06/06 14:13:51;;;;;;;;;;;;;;;;;;5066386;28;19912;-46
2022/06/06 14:16:17;;;;;;;;;;;;;;;;;;5067528;28;19904;-47
2022/06/06 14:18:43;;;;;;;;;;;;;;;;;;5067131;28;19908;-47
2022/06/06 14:21:09;;;;;;;;;;;;;;;;;;5066939;28;20378;-47
2022/06/06 14:23:35;;;;;;;;;;;;;;;;;;5066305;28;19909;-45
2022/06/06 14:26:01;;;;;;;;;;;;;;;;;;5054993;28;19966;-46
2022/06/06 14:28:28;;;;;;;;;;;;;;;;;;5067078;28;20002;-48
2022/06/06 14:30:54;;;;;;;;;;;;;;;;;;5067254;28;19909;-45
2022/06/06 14:33:20;;;;;;;;;;;;;;;;;;5063647;28;19954;-47
2022/06/06 14:35:46;;;;;;;;;;;;;;;;;;5053958;28;19999;-46
2022/06/06 14:38:13;;;;;;;;;;;;;;;;;;5067176;28;20425;-45
2022/06/06 14:40:39;;;;;;;;;;;;;;;;;;5066497;28;19904;-45
2022/06/06 14:43:05;;;;;;;;;;;;;;;;;;5067739;28;20413;-45
2022/06/06 14:45:31;;;;;;;;;;;;;;;;;;5066775;28;19908;-44
2022/06/06 14:47:57;;;;;;;;;;;;;;;;;;5067172;28;19957;-45
2022/06/06 14:53:07;;;;;;;;;;;;;;;;;;5065263;28;19969;-44
2022/06/06 14:55:33;;;;;;;;;;;;;;;;;;5069727;28;19916;-47
2022/06/06 14:57:59;;;;;;;;;;;;;;;;;;5066706;28;19904;-44
2022/06/06 15:00:25;;;;;;;;;;;;;;;;;;5067726;28;20309;-46
2022/06/06 15:02:51;;;;;;;;;;;;;;;;;;5066386;28;19916;-46
2022/06/06 15:05:18;;;;;;;;;;;;;;;;;;5071115;28;19912;-48
2022/06/06 15:07:44;;;;;;;;;;;;;;;;;;5063830;28;19913;-44
2022/06/06 15:10:10;;;;;;;;;;;;;;;;;;5066492;28;19999;-45
2022/06/06 15:12:36;;;;;;;;;;;;;;;;;;5063786;28;20046;-45
2022/06/06 15:15:02;;;;;;;;;;;;;;;;;;5071635;28;19957;-45
2022/06/06 15:17:28;;;;;;;;;;;;;;;;;;5068077;28;19905;-45
2022/06/06 15:19:54;;;;;;;;;;;;;;;;;;5068347;28;19908;-44
2022/06/06 15:22:20;;;;;;;;;;;;;;;;;;5070988;28;19995;-47
2022/06/06 15:24:46;;;;;;;;;;;;;;;;;;5066815;28;19915;-47
2022/06/06 15:27:13;;;;;;;;;;;;;;;;;;5064593;28;19912;-44
2022/06/06 15:29:40;;;;;;;;;;;;;;;;;;5070998;28;19904;-45
2022/06/06 15:32:06;;;;;;;;;;;;;;;;;;5073290;28;19948;-44
2022/06/06 15:34:32;;;;;;;;;;;;;;;;;;5074005;28;20001;-46
2022/06/06 15:36:57;;;;;;;;;;;;;;;;;;5065870;28;19912;-47
2022/06/06 15:39:23;;;;;;;;;;;;;;;;;;5065726;28;19920;-47
2022/06/06 15:41:49;;;;;;;;;;;;;;;;;;5075040;28;19912;-45
2022/06/06 15:44:15;;;;;;;;;;;;;;;;;;5067596;28;19908;-45
2022/06/06 15:46:44;;;;;;;;;;;;;;;;;;5070758;28;19909;-48
2022/06/06 15:49:10;;;;;;;;;;;;;;;;;;5070745;28;20379;-44
2022/06/06 15:51:36;;;;;;;;;;;;;;;;;;5073104;28;19912;-45
2022/06/06 15:54:04;;;;;;;;;;;;;;;;;;5069010;28;19912;-45
2022/06/06 15:56:30;;;;;;;;;;;;;;;;;;5070315;28;19918;-44
2022/06/06 15:58:56;;;;;;;;;;;;;;;;;;5070664;28;19912;-47
2022/06/06 16:01:22;;;;;;;;;;;;;;;;;;5070578;28;19908;-45
2022/06/06 16:03:48;;;;;;;;;;;;;;;;;;5054625;28;19909;-46
2022/06/06 16:06:14;;;;;;;;;;;;;;;;;;5070331;28;19912;-45
2022/06/06 16:08:41;;;;;;;;;;;;;;;;;;5072946;28;19912;-45
2022/06/06 16:11:07;;;;;;;;;;;;;;;;;;5069764;28;19908;-44
2022/06/06 16:13:33;;;;;;;;;;;;;;;;;;5069595;28;19959;-44
2022/06/06 16:15:59;;;;;;;;;;;;;;;;;;5069283;28;19936;-45
2022/06/06 16:18:25;;;;;;;;;;;;;;;;;;5068331;28;20280;-44
2022/06/06 16:20:51;;;;;;;;;;;;;;;;;;5069043;28;19915;-44
2022/06/06 16:23:18;;;;;;;;;;;;;;;;;;5070667;28;19964;-45
2022/06/06 16:25:44;;;;;;;;;;;;;;;;;;5072232;28;19908;-45
2022/06/06 16:28:10;;;;;;;;;;;;;;;;;;5066149;28;19916;-44
2022/06/06 16:30:36;;;;;;;;;;;;;;;;;;5072865;28;19935;-45
2022/06/06 16:33:02;;;;;;;;;;;;;;;;;;5071250;28;19912;-45
2022/06/06 16:35:28;;;;;;;;;;;;;;;;;;5067492;28;19977;-46
2022/06/06 16:37:55;;;;;;;;;;;;;;;;;;5053084;28;19966;-47
2022/06/06 16:40:20;;;;;;;;;;;;;;;;;;5049149;28;19999;-45
2022/06/06 16:48:32;;;;;;;;;;;;;;;;;;5028236;28;20011;-47
2022/06/06 16:50:58;;;;;;;;;;;;;;;;;;5052933;28;20345;-48
2022/06/06 16:53:24;;;;;;;;;;;;;;;;;;5069406;28;20057;-45
2022/06/06 16:55:51;;;;;;;;;;;;;;;;;;5077398;28;19912;-48
2022/06/06 16:58:18;;;;;;;;;;;;;;;;;;5070244;28;20368;-49
2022/06/06 17:00:44;;;;;;;;;;;;;;;;;;5083154;28;19916;-47
2022/06/06 17:03:10;;;;;;;;;;;;;;;;;;5071635;28;19912;-49
2022/06/06 17:08:20;;;;;;;;;;;;;;;;;;5080407;28;19927;-50
2022/06/06 17:10:46;;;;;;;;;;;;;;;;;;5077757;28;19908;-48
2022/06/06 17:13:12;;;;;;;;;;;;;;;;;;5088983;28;19953;-47